createdAt,value
2023-03-13T00:01:13.718Z,1.90
2023-03-13T00:03:41.119Z,1.83
2023-03-13T00:06:08.700Z,2.10
2023-03-13T00:08:36.047Z,2.45
2023-03-13T00:11:03.980Z,1.60
2023-03-13T00:13:31.378Z,2.17
2023-03-13T00:16:17.533Z,2.22
2023-03-13T00:18:48.784Z,2.40
2023-03-13T00:21:16.414Z,2.15
2023-03-13T00:23:44.190Z,2.00
2023-03-13T00:26:19.049Z,2.50
2023-03-13T00:28:46.591Z,1.42
2023-03-13T00:31:18.701Z,1.90
2023-03-13T00:33:47.524Z,1.75
2023-03-13T00:36:16.067Z,1.63
2023-03-13T00:38:43.864Z,1.88
2023-03-13T00:41:12.512Z,1.63
2023-03-13T00:43:40.566Z,2.10
2023-03-13T00:46:08.114Z,1.60
2023-03-13T00:48:35.716Z,1.75
2023-03-13T00:51:03.072Z,2.00
2023-03-13T00:53:30.600Z,1.95
2023-03-13T00:55:59.502Z,1.35
2023-03-13T00:58:27.742Z,1.95
2023-03-13T01:00:55.553Z,1.90
2023-03-13T01:03:27.834Z,1.50
2023-03-13T01:06:00.845Z,1.20
2023-03-13T01:08:28.901Z,1.55
2023-03-13T01:11:03.328Z,1.60
2023-03-13T01:13:33.101Z,2.10
2023-03-13T01:16:07.712Z,1.45
2023-03-13T01:18:35.708Z,1.70
2023-03-13T01:21:03.180Z,1.30
2023-03-13T01:23:30.937Z,1.40
2023-03-13T01:25:58.693Z,1.60
2023-03-13T01:28:26.432Z,1.60
2023-03-13T01:30:53.862Z,1.50
2023-03-13T01:33:21.258Z,1.85
2023-03-13T01:35:48.857Z,1.30
2023-03-13T01:38:16.264Z,1.35
2023-03-13T01:40:44.808Z,1.20
2023-03-13T01:43:26.375Z,1.55
2023-03-13T01:45:57.586Z,1.92
2023-03-13T01:48:27.185Z,1.30
2023-03-13T01:50:56.035Z,1.73
2023-03-13T01:53:24.434Z,1.33
2023-03-13T01:55:53.096Z,1.30
2023-03-13T01:58:20.605Z,1.48
2023-03-13T02:00:48.000Z,1.38
2023-03-13T02:03:18.303Z,1.60
2023-03-13T02:05:48.820Z,1.60
2023-03-13T02:08:27.520Z,1.52
2023-03-13T02:10:59.656Z,1.60
2023-03-13T02:13:27.066Z,1.30
2023-03-13T02:15:54.448Z,1.48
2023-03-13T02:18:21.855Z,1.65
2023-03-13T02:20:50.704Z,1.63
2023-03-13T02:23:20.220Z,1.17
2023-03-13T02:25:48.671Z,1.40
2023-03-13T02:28:24.423Z,1.45
2023-03-13T02:30:53.077Z,1.10
2023-03-13T02:33:20.617Z,1.50
2023-03-13T02:35:48.472Z,1.38
2023-03-13T02:38:20.619Z,1.25
2023-03-13T02:40:48.671Z,1.17
2023-03-13T02:43:18.152Z,2.10
2023-03-13T02:46:01.146Z,1.15
2023-03-13T02:48:36.092Z,1.13
2023-03-13T02:51:05.229Z,0.95
2023-03-13T02:53:33.622Z,0.82
2023-03-13T02:56:01.159Z,1.15
2023-03-13T02:58:30.258Z,1.00
2023-03-13T03:01:07.753Z,0.85
2023-03-13T03:03:38.173Z,0.82
2023-03-13T03:06:06.670Z,0.70
2023-03-13T03:08:34.705Z,0.80
2023-03-13T03:11:02.469Z,0.88
2023-03-13T03:13:29.773Z,0.70
2023-03-13T03:15:57.098Z,0.90
2023-03-13T03:18:24.356Z,0.60
2023-03-13T03:20:51.692Z,0.70
2023-03-13T03:23:18.964Z,0.60
2023-03-13T03:25:46.289Z,0.60
2023-03-13T03:28:13.526Z,0.98
2023-03-13T03:30:40.862Z,0.70
2023-03-13T03:33:08.207Z,0.43
2023-03-13T03:35:38.601Z,0.70
2023-03-13T03:38:05.963Z,0.60
2023-03-13T03:40:33.442Z,0.50
2023-03-13T03:43:00.796Z,0.75
2023-03-13T03:45:28.325Z,0.45
2023-03-13T03:47:55.773Z,0.60
2023-03-13T03:50:23.185Z,0.60
2023-03-13T03:52:51.522Z,0.60
2023-03-13T03:55:19.666Z,0.40
2023-03-13T03:57:46.952Z,0.60
2023-03-13T04:00:16.114Z,0.30
2023-03-13T04:02:43.560Z,0.38
2023-03-13T04:05:11.133Z,0.60
2023-03-13T04:07:38.542Z,0.50
2023-03-13T04:10:06.235Z,0.50
2023-03-13T04:12:33.673Z,0.60
2023-03-13T04:15:01.088Z,0.50
2023-03-13T04:17:28.408Z,0.60
2023-03-13T04:19:55.763Z,0.60
2023-03-13T04:22:23.050Z,0.70
2023-03-13T04:24:50.324Z,0.70
2023-03-13T04:27:17.607Z,0.60
2023-03-13T04:29:45.048Z,0.60
2023-03-13T04:32:12.380Z,0.60
2023-03-13T04:34:39.683Z,0.80
2023-03-13T04:37:07.008Z,1.00
2023-03-13T04:39:34.361Z,1.38
2023-03-13T04:42:01.673Z,1.00
2023-03-13T04:44:28.986Z,0.90
2023-03-13T04:46:56.262Z,1.20
2023-03-13T04:49:23.618Z,1.42
2023-03-13T04:51:50.853Z,1.25
2023-03-13T04:54:18.136Z,1.60
2023-03-13T04:56:45.417Z,1.27
2023-03-13T04:59:14.582Z,1.40
2023-03-13T05:01:42.398Z,1.80
2023-03-13T05:04:10.132Z,2.00
2023-03-13T05:06:37.428Z,2.00
2023-03-13T05:09:05.184Z,1.85
2023-03-13T05:11:32.452Z,1.77
2023-03-13T05:13:59.790Z,2.00
2023-03-13T05:16:27.318Z,2.00
2023-03-13T05:18:54.653Z,2.05
2023-03-13T05:21:21.972Z,2.42
2023-03-13T05:23:49.344Z,2.30
2023-03-13T05:26:16.644Z,2.50
2023-03-13T05:28:44.026Z,2.60
2023-03-13T05:31:11.445Z,2.83
2023-03-13T05:33:38.751Z,2.20
2023-03-13T05:36:06.207Z,2.63
2023-03-13T05:38:33.613Z,2.63
2023-03-13T05:41:00.876Z,2.38
2023-03-13T05:43:28.378Z,1.88
2023-03-13T05:45:55.742Z,1.35
2023-03-13T05:48:23.152Z,1.50
2023-03-13T05:50:50.382Z,1.25
2023-03-13T05:53:17.688Z,1.13
2023-03-13T05:55:44.984Z,1.20
2023-03-13T05:58:12.379Z,1.50
2023-03-13T06:00:39.741Z,1.20
2023-03-13T06:03:07.131Z,1.20
2023-03-13T06:05:34.593Z,1.30
2023-03-13T06:08:03.077Z,1.40
2023-03-13T06:10:30.352Z,1.40
2023-03-13T06:12:58.869Z,1.65
2023-03-13T06:15:27.474Z,1.60
2023-03-13T06:17:54.733Z,1.23
2023-03-13T06:20:22.605Z,1.30
2023-03-13T06:22:49.937Z,1.10
2023-03-13T06:25:17.324Z,1.30
2023-03-13T06:27:44.622Z,1.30
2023-03-13T06:30:12.774Z,1.50
2023-03-13T06:32:40.131Z,1.30
2023-03-13T06:35:08.091Z,1.00
2023-03-13T06:37:35.743Z,0.82
2023-03-13T06:40:04.061Z,0.90
2023-03-13T06:42:31.454Z,1.02
2023-03-13T06:44:58.699Z,0.88
2023-03-13T06:47:26.036Z,0.80
2023-03-13T06:49:53.429Z,0.70
2023-03-13T06:52:23.278Z,1.00
2023-03-13T06:54:53.861Z,0.80
2023-03-13T06:57:21.290Z,0.85
2023-03-13T06:59:48.530Z,0.93
2023-03-13T07:02:16.635Z,0.80
2023-03-13T07:04:45.341Z,0.90
2023-03-13T07:07:25.616Z,0.77
2023-03-13T07:09:58.350Z,1.00
2023-03-13T07:12:25.634Z,1.15
2023-03-13T07:14:53.064Z,1.67
2023-03-13T07:17:20.384Z,1.00
2023-03-13T07:19:47.868Z,1.15
2023-03-13T07:22:17.098Z,1.40
2023-03-13T07:24:44.510Z,1.27
2023-03-13T07:27:11.914Z,1.25
2023-03-13T07:29:39.200Z,1.48
2023-03-13T07:32:06.819Z,1.30
2023-03-13T07:34:34.238Z,1.55
2023-03-13T07:37:03.511Z,1.63
2023-03-13T07:39:31.174Z,1.70
2023-03-13T07:41:58.615Z,1.80
2023-03-13T07:44:25.904Z,1.40
2023-03-13T07:46:53.337Z,1.73
2023-03-13T07:49:20.597Z,1.65
2023-03-13T07:51:48.382Z,1.40
2023-03-13T07:54:15.676Z,1.55
2023-03-13T07:56:43.176Z,1.30
2023-03-13T07:59:13.225Z,1.40
2023-03-13T08:01:40.729Z,1.40
2023-03-13T08:04:08.226Z,1.55
2023-03-13T08:06:39.878Z,1.60
2023-03-13T08:09:07.218Z,1.13
2023-03-13T08:11:34.594Z,1.10
2023-03-13T08:14:01.864Z,1.25
2023-03-13T08:16:30.814Z,1.08
2023-03-13T08:18:59.258Z,1.48
2023-03-13T08:21:28.386Z,1.42
2023-03-13T08:23:58.165Z,1.10
2023-03-13T08:26:26.972Z,1.30
2023-03-13T08:28:55.553Z,1.30
2023-03-13T08:31:26.918Z,1.00
2023-03-13T08:33:54.253Z,1.27
2023-03-13T08:36:27.099Z,1.35
2023-03-13T08:38:55.148Z,1.42
2023-03-13T08:41:23.910Z,1.23
2023-03-13T08:43:53.396Z,1.20
2023-03-13T08:46:20.677Z,1.48
2023-03-13T08:48:51.924Z,1.40
2023-03-13T08:51:19.966Z,1.40
2023-03-13T08:53:47.441Z,1.45
2023-03-13T08:56:15.828Z,1.55
2023-03-13T08:58:43.528Z,1.38
2023-03-13T09:01:12.447Z,1.40
2023-03-13T09:03:40.521Z,1.45
2023-03-13T09:06:08.708Z,1.77
2023-03-13T09:08:36.431Z,1.90
2023-03-13T09:11:05.047Z,1.88
2023-03-13T09:13:33.310Z,2.45
2023-03-13T09:16:04.825Z,2.20
2023-03-13T09:18:32.601Z,2.10
2023-03-13T09:21:00.040Z,1.75
2023-03-13T09:23:27.773Z,2.20
2023-03-13T09:25:56.760Z,2.03
2023-03-13T09:28:24.625Z,2.00
2023-03-13T09:30:52.003Z,1.95
2023-03-13T09:33:20.025Z,2.47
2023-03-13T09:35:51.269Z,1.80
2023-03-13T09:38:19.261Z,2.15
2023-03-13T09:40:59.842Z,1.67
2023-03-13T09:43:41.623Z,1.77
2023-03-13T09:46:35.348Z,1.50
2023-03-13T09:49:08.262Z,1.58
2023-03-13T09:51:41.436Z,2.17
2023-03-13T09:54:10.382Z,1.45
2023-03-13T09:56:41.660Z,1.60
2023-03-13T09:59:16.243Z,1.40
2023-03-13T10:01:44.595Z,1.40
2023-03-13T10:04:21.508Z,1.60
2023-03-13T10:06:49.752Z,1.52
2023-03-13T10:09:30.963Z,1.55
2023-03-13T10:12:05.900Z,1.58
2023-03-13T10:14:39.227Z,1.58
2023-03-13T10:17:18.854Z,1.70
2023-03-13T10:19:48.615Z,1.52
2023-03-13T10:22:20.225Z,1.33
2023-03-13T10:25:22.775Z,1.33
2023-03-13T10:27:51.111Z,1.75
2023-03-13T10:30:30.600Z,1.30
2023-03-13T10:32:59.551Z,1.50
2023-03-13T10:35:33.277Z,1.10
2023-03-13T10:38:05.903Z,1.30
2023-03-13T10:40:33.336Z,1.25
2023-03-13T10:43:08.067Z,1.40
2023-03-13T10:45:36.835Z,1.92
2023-03-13T10:48:14.682Z,1.27
2023-03-13T10:50:48.595Z,1.05
2023-03-13T10:53:24.963Z,1.20
2023-03-13T10:55:56.487Z,1.15
2023-03-13T10:58:28.954Z,1.00
2023-03-13T11:01:10.542Z,1.30
2023-03-13T11:03:38.140Z,1.30
2023-03-13T11:06:05.813Z,1.40
2023-03-13T11:08:37.041Z,1.10
2023-03-13T11:11:17.769Z,1.00
2023-03-13T11:13:45.142Z,1.10
2023-03-13T11:16:19.833Z,1.08
2023-03-13T11:18:50.178Z,0.98
2023-03-13T11:21:37.316Z,1.00
2023-03-13T11:24:08.784Z,0.90
2023-03-13T11:26:38.041Z,1.20
2023-03-13T11:29:24.239Z,1.20
2023-03-13T11:32:04.809Z,0.93
2023-03-13T11:34:39.251Z,1.13
2023-03-13T11:37:10.761Z,1.08
2023-03-13T11:39:37.987Z,1.10
2023-03-13T11:42:08.612Z,1.30
2023-03-13T11:44:39.014Z,1.10
2023-03-13T11:47:14.121Z,0.93
2023-03-13T11:49:50.340Z,0.95
2023-03-13T11:52:20.692Z,1.20
2023-03-13T11:55:06.717Z,1.13
2023-03-13T11:57:52.664Z,1.10
2023-03-13T12:00:20.100Z,1.15
2023-03-13T12:02:51.596Z,0.95
2023-03-13T12:05:20.660Z,1.45
2023-03-13T12:08:04.121Z,1.00
2023-03-13T12:10:38.064Z,1.00
2023-03-13T12:13:08.328Z,1.00
2023-03-13T12:15:39.801Z,1.00
2023-03-13T12:18:26.088Z,1.08
2023-03-13T12:21:03.952Z,1.00
2023-03-13T12:23:43.730Z,0.80
2023-03-13T12:26:15.721Z,1.00
2023-03-13T12:28:43.041Z,1.10
2023-03-13T12:31:25.681Z,0.95
2023-03-13T12:33:56.985Z,0.80
2023-03-13T12:36:29.534Z,1.05
2023-03-13T12:39:26.321Z,1.00
2023-03-13T12:42:13.827Z,0.82
2023-03-13T12:44:41.426Z,0.80
2023-03-13T12:47:18.712Z,0.98
2023-03-13T12:49:48.958Z,1.23
2023-03-13T12:52:16.234Z,0.95
2023-03-13T12:54:46.590Z,0.90
2023-03-13T12:57:13.863Z,1.10
2023-03-13T12:59:42.827Z,1.10
2023-03-13T13:02:15.990Z,1.10
2023-03-13T13:04:46.353Z,0.90
2023-03-13T13:07:26.882Z,1.10
2023-03-13T13:10:03.219Z,0.80
2023-03-13T13:12:30.879Z,1.00
2023-03-13T13:15:04.266Z,1.00
2023-03-13T13:17:34.469Z,0.90
2023-03-13T13:20:21.664Z,0.90
2023-03-13T13:22:52.802Z,0.98
2023-03-13T13:25:29.081Z,1.00
2023-03-13T13:27:58.777Z,1.10
2023-03-13T13:30:31.006Z,0.80
2023-03-13T13:33:18.974Z,0.90
2023-03-13T13:36:06.252Z,0.85
2023-03-13T13:38:37.285Z,1.10
2023-03-13T13:41:10.726Z,0.85
2023-03-13T13:43:42.162Z,1.10
2023-03-13T13:46:10.965Z,0.85
2023-03-13T13:48:40.077Z,1.02
2023-03-13T13:51:16.267Z,1.00
2023-03-13T13:53:44.892Z,0.80
2023-03-13T13:56:30.961Z,0.68
2023-03-13T13:58:58.249Z,0.85
2023-03-13T14:01:26.049Z,0.63
2023-03-13T14:06:37.791Z,0.90
2023-03-13T14:09:17.794Z,0.98
2023-03-13T14:11:45.201Z,1.30
2023-03-13T14:14:22.744Z,1.00
2023-03-13T14:16:51.518Z,1.00
2023-03-13T14:19:25.705Z,0.90
2023-03-13T14:21:58.484Z,0.90
2023-03-13T14:24:25.806Z,0.70
2023-03-13T14:26:53.161Z,0.63
2023-03-13T14:29:25.966Z,0.82
2023-03-13T14:31:55.104Z,0.85
2023-03-13T14:34:25.359Z,0.80
2023-03-13T14:37:07.282Z,0.85
2023-03-13T14:39:39.561Z,0.80
2023-03-13T14:42:10.818Z,1.05
2023-03-13T14:44:39.094Z,0.90
2023-03-13T14:47:32.905Z,0.80
2023-03-13T14:50:04.617Z,0.93
2023-03-13T14:52:33.364Z,0.88
2023-03-13T14:55:04.320Z,0.80
2023-03-13T14:57:32.384Z,0.70
2023-03-13T15:00:19.741Z,0.70
2023-03-13T15:02:47.113Z,0.75
2023-03-13T15:05:34.320Z,0.85
2023-03-13T15:08:01.579Z,0.80
2023-03-13T15:10:38.574Z,0.70
2023-03-13T15:13:36.076Z,0.82
2023-03-13T15:16:05.066Z,0.77
2023-03-13T15:18:33.866Z,1.48
2023-03-13T15:21:21.649Z,1.52
2023-03-13T15:23:53.784Z,0.60
2023-03-13T15:26:21.180Z,0.70
2023-03-13T15:28:48.575Z,0.80
2023-03-13T15:31:16.104Z,0.80
2023-03-13T15:33:44.737Z,0.82
2023-03-13T15:36:12.286Z,0.75
2023-03-13T15:38:41.250Z,0.60
2023-03-13T15:41:09.388Z,0.70
2023-03-13T15:43:37.263Z,0.55
2023-03-13T15:46:05.877Z,0.50
2023-03-13T15:48:33.427Z,0.70
2023-03-13T15:51:02.618Z,0.73
2023-03-13T15:53:31.111Z,0.52
2023-03-13T15:55:59.740Z,0.50
2023-03-13T15:58:28.624Z,0.40
2023-03-13T16:00:56.681Z,0.40
2023-03-13T16:03:25.619Z,0.52
2023-03-13T16:05:53.678Z,0.60
2023-03-13T16:08:35.190Z,0.70
2023-03-13T16:11:03.386Z,0.40
2023-03-13T16:13:31.464Z,0.68
2023-03-13T16:15:58.792Z,0.70
2023-03-13T16:18:26.448Z,0.47
2023-03-13T16:20:54.390Z,0.45
2023-03-13T16:23:21.707Z,0.60
2023-03-13T16:25:49.584Z,0.50
2023-03-13T16:28:17.173Z,0.57
2023-03-13T16:30:45.421Z,0.50
2023-03-13T16:33:12.804Z,0.60
2023-03-13T16:35:40.196Z,0.68
2023-03-13T16:38:10.249Z,0.95
2023-03-13T16:40:37.566Z,0.50
2023-03-13T16:43:04.830Z,0.70
2023-03-13T16:45:32.059Z,0.60
2023-03-13T16:47:59.352Z,0.60
2023-03-13T16:50:32.802Z,0.73
2023-03-13T16:53:00.239Z,0.68
2023-03-13T16:55:36.129Z,0.65
2023-03-13T16:58:06.135Z,0.65
2023-03-13T17:00:33.489Z,0.60
2023-03-13T17:03:01.829Z,0.60
2023-03-13T17:05:29.663Z,0.50
2023-03-13T17:07:56.946Z,0.80
2023-03-13T17:10:26.106Z,0.70
2023-03-13T17:12:53.712Z,0.65
2023-03-13T17:15:21.797Z,0.65
2023-03-13T17:17:54.274Z,0.80
2023-03-13T17:20:26.123Z,0.80
2023-03-13T17:22:53.853Z,0.93
2023-03-13T17:25:21.810Z,1.00
2023-03-13T17:27:49.485Z,0.80
2023-03-13T17:30:22.375Z,0.70
2023-03-13T17:32:50.364Z,0.70
2023-03-13T17:35:18.483Z,0.70
2023-03-13T17:37:46.039Z,0.73
2023-03-13T17:40:16.767Z,0.80
2023-03-13T17:42:44.350Z,0.80
2023-03-13T17:45:13.511Z,0.75
2023-03-13T17:47:40.999Z,0.65
2023-03-13T17:50:15.971Z,0.73
2023-03-13T17:52:43.436Z,0.80
2023-03-13T17:55:11.477Z,0.98
2023-03-13T17:57:39.061Z,0.95
2023-03-13T18:00:14.370Z,0.80
2023-03-13T18:02:41.727Z,1.63
2023-03-13T18:05:09.189Z,0.73
2023-03-13T18:07:36.696Z,0.60
2023-03-13T18:10:04.310Z,0.80
2023-03-13T18:12:31.734Z,0.73
2023-03-13T18:14:59.065Z,0.82
2023-03-13T18:17:26.394Z,0.77
2023-03-13T18:19:53.790Z,0.95
2023-03-13T18:22:21.645Z,0.60
2023-03-13T18:24:49.005Z,0.80
2023-03-13T18:27:17.342Z,0.95
2023-03-13T18:29:45.350Z,0.85
2023-03-13T18:32:16.429Z,0.90
2023-03-13T18:34:44.004Z,0.70
2023-03-13T18:37:20.453Z,0.90
2023-03-13T18:39:50.021Z,1.15
2023-03-13T18:42:17.673Z,0.70
2023-03-13T18:44:45.038Z,0.70
2023-03-13T18:47:16.566Z,0.60
2023-03-13T18:49:44.018Z,0.80
2023-03-13T18:52:11.873Z,0.63
2023-03-13T18:54:39.439Z,0.50
2023-03-13T18:57:14.054Z,0.70
2023-03-13T18:59:41.439Z,0.30
2023-03-13T19:02:12.922Z,0.57
2023-03-13T19:04:40.230Z,0.43
2023-03-13T19:07:20.357Z,0.45
2023-03-13T19:09:47.741Z,0.30
2023-03-13T19:12:16.026Z,0.40
2023-03-13T19:14:43.613Z,0.68
2023-03-13T19:17:23.273Z,0.40
2023-03-13T19:19:50.606Z,0.40
2023-03-13T19:22:17.909Z,0.52
2023-03-13T19:24:45.374Z,0.30
2023-03-13T19:27:14.844Z,0.40
2023-03-13T19:29:42.159Z,0.38
2023-03-13T19:32:14.244Z,0.40
2023-03-13T19:34:41.595Z,0.43
2023-03-13T19:37:16.117Z,0.40
2023-03-13T19:39:43.923Z,0.40
2023-03-13T19:42:11.387Z,0.30
2023-03-13T19:44:40.463Z,0.35
2023-03-13T19:47:07.820Z,0.38
2023-03-13T19:49:35.168Z,0.40
2023-03-13T19:52:02.840Z,0.38
2023-03-13T19:54:30.147Z,0.32
2023-03-13T19:56:58.015Z,0.40
2023-03-13T19:59:31.461Z,0.40
2023-03-13T20:02:01.230Z,0.43
2023-03-13T20:04:28.532Z,0.40
2023-03-13T20:06:55.916Z,0.40
2023-03-13T20:09:23.377Z,0.50
2023-03-13T20:11:50.702Z,0.40
2023-03-13T20:14:18.241Z,0.52
2023-03-13T20:16:48.850Z,0.55
2023-03-13T20:19:16.322Z,0.40
2023-03-13T20:21:43.957Z,0.20
2023-03-13T20:24:11.828Z,0.30
2023-03-13T20:26:39.167Z,0.35
2023-03-13T20:29:06.526Z,0.30
2023-03-13T20:31:34.104Z,0.30
2023-03-13T20:34:01.868Z,0.40
2023-03-13T20:36:29.194Z,0.32
2023-03-13T20:38:56.689Z,0.40
2023-03-13T20:41:27.422Z,0.25
2023-03-13T20:43:54.759Z,0.32
2023-03-13T20:46:22.413Z,0.28
2023-03-13T20:48:50.145Z,0.57
2023-03-13T20:51:17.921Z,0.40
2023-03-13T20:53:45.444Z,0.40
2023-03-13T20:56:13.097Z,0.40
2023-03-13T20:58:40.342Z,0.40
2023-03-13T21:01:08.210Z,0.30
2023-03-13T21:03:36.281Z,0.45
2023-03-13T21:06:11.251Z,0.30
2023-03-13T21:08:38.976Z,0.47
2023-03-13T21:11:33.974Z,0.35
2023-03-13T21:14:01.830Z,0.88
2023-03-13T21:16:29.132Z,0.30
2023-03-13T21:18:56.527Z,0.30
2023-03-13T21:21:25.567Z,0.50
2023-03-13T21:23:53.262Z,0.50
2023-03-13T21:26:20.788Z,0.30
2023-03-13T21:28:48.158Z,0.38
2023-03-13T21:31:19.038Z,0.35
2023-03-13T21:33:46.741Z,0.40
2023-03-13T21:36:14.999Z,0.40
2023-03-13T21:38:42.282Z,0.40
2023-03-13T21:41:10.693Z,0.40
2023-03-13T21:43:38.143Z,0.40
2023-03-13T21:46:05.522Z,0.30
2023-03-13T21:48:32.792Z,0.30
2023-03-13T21:51:00.567Z,0.38
2023-03-13T21:53:28.102Z,0.40
2023-03-13T21:55:55.446Z,0.40
2023-03-13T21:58:22.813Z,0.30
2023-03-13T22:00:50.181Z,0.52
2023-03-13T22:03:17.527Z,0.50
2023-03-13T22:05:45.330Z,0.50
2023-03-13T22:08:13.403Z,0.50
2023-03-13T22:10:40.898Z,0.60
2023-03-13T22:13:09.190Z,0.82
2023-03-13T22:15:37.824Z,0.40
2023-03-13T22:18:05.285Z,0.52
2023-03-13T22:20:33.732Z,0.45
2023-03-13T22:23:03.720Z,0.50
2023-03-13T22:25:35.560Z,0.50
2023-03-13T22:28:02.925Z,0.60
2023-03-13T22:30:32.892Z,0.68
2023-03-13T22:33:00.394Z,0.60
2023-03-13T22:35:27.715Z,0.73
2023-03-13T22:37:55.079Z,0.73
2023-03-13T22:40:22.416Z,0.60
2023-03-13T22:42:51.742Z,0.50
2023-03-13T22:45:19.748Z,0.50
2023-03-13T22:47:47.088Z,0.52
2023-03-13T22:50:15.061Z,0.52
2023-03-13T22:52:42.428Z,0.55
2023-03-13T22:55:10.078Z,0.50
2023-03-13T22:57:37.348Z,0.60
2023-03-13T23:00:05.610Z,0.50
2023-03-13T23:02:33.057Z,0.70
2023-03-13T23:05:01.300Z,0.70
2023-03-13T23:07:30.346Z,0.68
2023-03-13T23:09:59.827Z,0.80
2023-03-13T23:12:30.845Z,0.60
2023-03-13T23:14:59.939Z,0.60
2023-03-13T23:17:31.659Z,0.63
2023-03-13T23:20:01.959Z,0.80
2023-03-13T23:22:34.032Z,0.52
2023-03-13T23:25:01.419Z,0.50
2023-03-13T23:27:28.887Z,0.85
2023-03-13T23:30:01.919Z,0.80
2023-03-13T23:32:37.066Z,0.80
2023-03-13T23:35:06.065Z,0.70
2023-03-13T23:37:33.489Z,0.80
2023-03-13T23:40:01.352Z,0.80
2023-03-13T23:42:30.453Z,0.75
2023-03-13T23:44:58.262Z,0.63
2023-03-13T23:47:25.748Z,0.95
2023-03-13T23:49:56.097Z,0.75
2023-03-13T23:52:23.594Z,0.82
2023-03-13T23:54:54.648Z,0.68
2023-03-13T23:57:22.205Z,0.90
2023-03-13T23:59:49.577Z,0.85
